createdAt,value
2018-10-19T00:03:07.133Z,4.97
2018-10-19T00:08:09.292Z,4.37
2018-10-19T00:13:11.395Z,4.47
2018-10-19T00:18:13.523Z,5.20
2018-10-19T00:23:15.637Z,4.93
2018-10-19T00:28:17.748Z,4.87
2018-10-19T00:33:19.893Z,4.80
2018-10-19T00:38:22.012Z,4.13
2018-10-19T00:43:24.127Z,4.93
2018-10-19T00:48:26.222Z,4.33
2018-10-19T00:53:28.306Z,4.07
2018-10-19T00:58:30.403Z,4.70
2018-10-19T01:03:32.525Z,4.50
2018-10-19T01:08:34.702Z,4.17
2018-10-19T01:13:36.815Z,5.10
2018-10-19T01:18:39.029Z,3.90
2018-10-19T01:23:41.116Z,4.90
2018-10-19T01:28:43.220Z,4.70
2018-10-19T01:33:52.236Z,3.77
2018-10-19T01:38:54.401Z,4.93
2018-10-19T01:43:56.457Z,4.60
2018-10-19T01:48:58.551Z,5.30
2018-10-19T01:54:01.006Z,4.30
2018-10-19T01:59:03.169Z,5.17
2018-10-19T02:04:05.235Z,4.60
2018-10-19T02:09:07.918Z,4.63
2018-10-19T02:14:09.970Z,4.57
2018-10-19T02:19:12.068Z,5.25
2018-10-19T02:24:14.161Z,5.57
2018-10-19T02:29:16.258Z,5.50
2018-10-19T02:34:18.437Z,5.07
2018-10-19T02:39:20.560Z,4.97
2018-10-19T02:44:22.687Z,4.90
2018-10-19T02:49:24.790Z,5.60
2018-10-19T02:54:26.888Z,5.40
2018-10-19T02:59:28.999Z,7.00
2018-10-19T03:04:31.121Z,5.00
2018-10-19T03:09:33.236Z,6.57
2018-10-19T03:14:35.371Z,6.77
2018-10-19T03:19:37.494Z,5.17
2018-10-19T03:24:39.595Z,5.13
2018-10-19T03:29:41.726Z,5.63
2018-10-19T03:34:43.855Z,5.27
2018-10-19T03:39:45.972Z,5.90
2018-10-19T03:44:48.116Z,5.47
2018-10-19T03:49:50.199Z,5.50
2018-10-19T03:54:52.406Z,5.90
2018-10-19T03:59:54.532Z,4.60
2018-10-19T04:04:56.696Z,4.63
2018-10-19T04:09:58.741Z,5.10
2018-10-19T04:15:00.890Z,5.57
2018-10-19T04:20:03.241Z,4.90
2018-10-19T04:25:05.419Z,5.33
2018-10-19T04:30:07.810Z,4.80
2018-10-19T04:35:10.031Z,5.77
2018-10-19T04:40:16.569Z,4.30
2018-10-19T04:45:19.319Z,5.30
2018-10-19T04:50:21.436Z,5.97
2018-10-19T04:55:23.539Z,5.50
2018-10-19T05:00:25.629Z,5.13
2018-10-19T05:05:27.863Z,6.27
2018-10-19T05:10:29.887Z,5.60
2018-10-19T05:15:32.028Z,4.60
2018-10-19T05:20:34.108Z,4.97
2018-10-19T05:25:36.197Z,5.77
2018-10-19T05:30:38.265Z,5.20
2018-10-19T05:35:40.408Z,6.07
2018-10-19T05:40:42.519Z,6.13
2018-10-19T05:45:44.636Z,6.30
2018-10-19T05:50:46.758Z,6.80
2018-10-19T05:55:48.898Z,7.30
2018-10-19T06:00:51.064Z,6.37
2018-10-19T06:05:53.208Z,7.13
2018-10-19T06:10:55.352Z,7.30
2018-10-19T06:15:57.447Z,8.60
2018-10-19T06:20:59.613Z,7.90
2018-10-19T06:26:01.834Z,7.53
2018-10-19T06:31:04.135Z,8.30
2018-10-19T06:36:06.286Z,12.00
2018-10-19T06:41:08.454Z,11.43
2018-10-19T06:46:10.510Z,8.30
2018-10-19T06:51:12.609Z,5.33
2018-10-19T06:56:14.760Z,5.57
2018-10-19T07:01:16.849Z,5.70
2018-10-19T07:06:19.033Z,5.87
2018-10-19T07:11:21.306Z,7.57
2018-10-19T07:16:23.469Z,7.40
2018-10-19T07:21:25.613Z,6.77
2018-10-19T07:26:27.738Z,5.50
2018-10-19T07:31:29.846Z,5.70
2018-10-19T07:36:32.060Z,5.80
2018-10-19T07:41:34.118Z,5.80
2018-10-19T07:46:36.270Z,5.07
2018-10-19T07:51:38.412Z,5.43
2018-10-19T07:56:40.482Z,4.60
2018-10-19T08:01:42.619Z,4.07
2018-10-19T08:06:44.751Z,6.10
2018-10-19T08:11:46.869Z,5.43
2018-10-19T08:16:49.004Z,5.40
2018-10-19T08:21:51.334Z,5.00
2018-10-19T08:26:53.434Z,4.80
2018-10-19T08:31:55.618Z,4.23
2018-10-19T08:36:57.755Z,5.43
2018-10-19T08:41:59.891Z,5.30
2018-10-19T08:47:02.110Z,5.17
2018-10-19T08:52:04.325Z,4.17
2018-10-19T08:57:06.549Z,4.27
2018-10-19T09:02:08.594Z,3.93
2018-10-19T09:07:10.695Z,3.97
2018-10-19T09:12:12.824Z,3.57
2018-10-19T09:17:15.037Z,3.07
2018-10-19T09:22:17.460Z,3.20
2018-10-19T09:27:19.857Z,3.00
2018-10-19T09:32:21.971Z,2.60
2018-10-19T09:37:24.120Z,1.90
2018-10-19T09:42:26.270Z,1.40
2018-10-19T09:47:28.520Z,2.00
2018-10-19T09:52:30.564Z,1.93
2018-10-19T09:57:32.695Z,2.67
2018-10-19T10:02:34.861Z,2.20
2018-10-19T10:07:36.960Z,1.70
2018-10-19T10:12:39.054Z,1.63
2018-10-19T10:17:41.178Z,1.90
2018-10-19T10:22:43.303Z,1.77
2018-10-19T10:27:45.478Z,2.47
2018-10-19T10:32:47.630Z,1.67
2018-10-19T10:37:49.978Z,1.90
2018-10-19T10:42:52.067Z,1.87
2018-10-19T10:47:54.196Z,1.87
2018-10-19T10:52:56.308Z,2.13
2018-10-19T10:57:58.465Z,1.20
2018-10-19T11:03:00.575Z,1.80
2018-10-19T11:08:02.703Z,1.73
2018-10-19T11:13:04.946Z,1.90
2018-10-19T11:18:07.277Z,1.90
2018-10-19T11:23:09.419Z,1.97
2018-10-19T11:28:11.848Z,1.57
2018-10-19T11:33:13.983Z,1.70
2018-10-19T11:38:16.149Z,1.17
2018-10-19T11:43:18.334Z,2.03
2018-10-19T11:48:20.404Z,2.23
2018-10-19T11:53:22.536Z,2.50
2018-10-19T11:58:24.690Z,1.70
2018-10-19T12:03:26.837Z,2.70
2018-10-19T12:08:28.912Z,1.93
2018-10-19T12:13:31.108Z,2.97
2018-10-19T12:18:33.237Z,2.23
2018-10-19T12:23:35.353Z,1.80
2018-10-19T12:28:37.513Z,2.53
2018-10-19T12:33:39.656Z,2.30
2018-10-19T12:38:41.836Z,1.73
2018-10-19T12:43:43.951Z,2.03
2018-10-19T12:48:46.082Z,2.10
2018-10-19T12:53:48.357Z,2.20
2018-10-19T12:58:51.471Z,4.53
2018-10-19T13:03:53.655Z,5.80
2018-10-19T13:08:55.897Z,5.60
2018-10-19T13:13:57.960Z,3.10
2018-10-19T13:19:00.098Z,2.47
2018-10-19T13:24:02.246Z,1.53
2018-10-19T13:29:04.833Z,1.60
2018-10-19T13:34:06.986Z,1.97
2018-10-19T13:39:10.778Z,1.53
2018-10-19T13:44:12.826Z,1.60
2018-10-19T13:49:14.966Z,1.63
2018-10-19T13:54:17.114Z,2.43
2018-10-19T13:59:19.345Z,1.57
2018-10-19T14:04:21.469Z,1.80
2018-10-19T14:09:23.629Z,3.70
2018-10-19T14:14:25.755Z,29.40
2018-10-19T14:19:27.856Z,53.63
2018-10-19T14:24:29.978Z,31.30
2018-10-19T14:29:32.104Z,6.27
2018-10-19T14:34:34.245Z,2.57
2018-10-19T14:39:36.459Z,2.60
2018-10-19T14:44:38.733Z,2.57
2018-10-19T14:49:40.898Z,2.27
2018-10-19T14:54:43.169Z,5.30
2018-10-19T14:59:45.210Z,4.20
2018-10-19T15:04:47.423Z,2.60
2018-10-19T15:09:49.738Z,2.00
2018-10-19T15:14:51.680Z,3.30
2018-10-19T15:19:53.801Z,2.50
2018-10-19T15:24:56.099Z,2.80
2018-10-19T15:29:58.339Z,4.90
2018-10-19T15:35:00.451Z,5.30
2018-10-19T15:40:02.723Z,4.70
2018-10-19T15:45:06.648Z,4.40
2018-10-19T15:50:08.980Z,4.60
2018-10-19T15:55:11.156Z,3.00
2018-10-19T16:00:13.422Z,6.30
2018-10-19T16:05:15.514Z,7.20
2018-10-19T16:10:17.692Z,7.43
2018-10-19T16:15:19.824Z,8.08
2018-10-19T16:20:21.947Z,7.07
2018-10-19T16:25:24.081Z,7.00
2018-10-19T16:30:26.227Z,6.90
2018-10-19T16:35:28.377Z,7.57
2018-10-19T16:40:30.553Z,7.00
2018-10-19T16:45:32.787Z,7.53
2018-10-19T16:50:35.054Z,7.33
2018-10-19T16:55:37.163Z,7.17
2018-10-19T17:00:39.347Z,7.50
2018-10-19T17:05:41.520Z,7.73
2018-10-19T17:10:43.672Z,8.70
2018-10-19T17:15:45.827Z,7.30
2018-10-19T17:20:48.086Z,6.87
2018-10-19T17:25:50.272Z,13.73
2018-10-19T17:30:52.539Z,7.70
2018-10-19T17:35:54.685Z,6.47
2018-10-19T17:40:56.907Z,6.43
2018-10-19T17:45:59.115Z,6.80
2018-10-19T17:51:01.306Z,5.60
2018-10-19T17:56:03.646Z,6.40
2018-10-19T18:01:05.934Z,5.73
2018-10-19T18:06:08.203Z,4.80
2018-10-19T18:11:10.646Z,5.53
2018-10-19T18:16:13.697Z,5.10
2018-10-19T18:21:16.044Z,5.63
2018-10-19T18:26:18.151Z,6.93
2018-10-19T18:31:20.410Z,5.10
2018-10-19T18:36:22.616Z,5.87
2018-10-19T18:41:24.874Z,6.43
2018-10-19T18:46:27.335Z,5.70
2018-10-19T18:51:30.098Z,5.70
2018-10-19T18:56:32.424Z,5.67
2018-10-19T19:01:34.818Z,5.10
2018-10-19T19:06:38.909Z,5.40
2018-10-19T19:11:41.722Z,7.17
2018-10-19T19:16:44.675Z,7.20
2018-10-19T19:21:47.104Z,7.93
2018-10-19T19:26:49.510Z,7.50
2018-10-19T19:31:52.338Z,6.70
2018-10-19T19:36:55.084Z,8.77
2018-10-19T19:42:03.722Z,7.67
2018-10-19T19:47:06.613Z,6.40
2018-10-19T19:52:10.957Z,6.80
2018-10-19T19:57:14.889Z,6.40
2018-10-19T20:02:17.570Z,6.60
2018-10-19T20:07:20.233Z,7.60
2018-10-19T20:12:22.658Z,6.67
2018-10-19T20:17:25.343Z,8.27
2018-10-19T20:22:27.815Z,7.37
2018-10-19T20:27:30.668Z,9.53
2018-10-19T20:32:32.967Z,8.10
2018-10-19T20:37:35.163Z,10.40
2018-10-19T20:42:37.390Z,11.73
2018-10-19T20:47:39.630Z,10.20
2018-10-19T20:52:41.802Z,8.87
2018-10-19T20:57:43.945Z,7.73
2018-10-19T21:02:46.172Z,9.90
2018-10-19T21:07:48.351Z,8.50
2018-10-19T21:12:50.540Z,9.90
2018-10-19T21:17:52.711Z,8.23
2018-10-19T21:22:54.909Z,8.13
2018-10-19T21:27:57.058Z,7.10
2018-10-19T21:32:59.249Z,5.57
2018-10-19T21:38:01.477Z,5.47
2018-10-19T21:43:03.791Z,5.90
2018-10-19T21:48:05.919Z,6.10
2018-10-19T21:53:08.066Z,6.60
2018-10-19T21:58:10.223Z,5.87
2018-10-19T22:03:12.349Z,4.73
2018-10-19T22:08:14.520Z,5.47
2018-10-19T22:13:16.742Z,5.47
2018-10-19T22:18:18.836Z,4.87
2018-10-19T22:23:21.021Z,5.47
2018-10-19T22:28:23.104Z,6.37
2018-10-19T22:33:25.231Z,6.13
2018-10-19T22:38:27.356Z,5.53
2018-10-19T22:43:29.843Z,5.40
2018-10-19T22:48:31.964Z,4.23
2018-10-19T22:53:34.143Z,5.20
2018-10-19T22:58:36.288Z,4.80
2018-10-19T23:03:38.416Z,3.63
2018-10-19T23:08:40.581Z,4.00
2018-10-19T23:13:42.841Z,4.67
2018-10-19T23:18:44.991Z,4.30
2018-10-19T23:23:47.157Z,3.20
2018-10-19T23:28:49.351Z,3.50
2018-10-19T23:33:51.453Z,4.10
2018-10-19T23:38:53.619Z,4.43
2018-10-19T23:43:55.908Z,4.37
2018-10-19T23:48:57.977Z,4.10
2018-10-19T23:54:00.087Z,3.20
2018-10-19T23:59:02.319Z,3.63
